sensor_id;sensor_type;location;lat;lon;timestamp;pressure;altitude;pressure_sealevel;temperature;humidity
47811;BME280;33575;52.600;7.318;2023-04-06T00:01:34;101719.11;;;1.23;73.87
47811;BME280;33575;52.600;7.318;2023-04-06T00:04:04;101716.77;;;1.25;73.65
47811;BME280;33575;52.600;7.318;2023-04-06T00:06:34;101719.74;;;1.24;73.55
47811;BME280;33575;52.600;7.318;2023-04-06T00:09:05;101711.93;;;1.22;73.68
47811;BME280;33575;52.600;7.318;2023-04-06T00:11:35;101711.34;;;1.23;73.40
47811;BME280;33575;52.600;7.318;2023-04-06T00:14:05;101708.68;;;1.22;73.22
47811;BME280;33575;52.600;7.318;2023-04-06T00:16:35;101704.30;;;1.22;73.32
47811;BME280;33575;52.600;7.318;2023-04-06T00:19:06;101702.36;;;1.17;73.42
47811;BME280;33575;52.600;7.318;2023-04-06T00:21:36;101700.19;;;1.19;73.26
47811;BME280;33575;52.600;7.318;2023-04-06T00:24:07;101697.82;;;1.19;73.24
47811;BME280;33575;52.600;7.318;2023-04-06T00:26:37;101693.67;;;1.18;73.71
47811;BME280;33575;52.600;7.318;2023-04-06T00:29:08;101694.34;;;1.20;74.36
47811;BME280;33575;52.600;7.318;2023-04-06T00:31:38;101691.22;;;1.24;73.82
47811;BME280;33575;52.600;7.318;2023-04-06T00:34:09;101689.27;;;1.27;73.55
47811;BME280;33575;52.600;7.318;2023-04-06T00:36:38;101688.45;;;1.29;73.92
47811;BME280;33575;52.600;7.318;2023-04-06T00:39:09;101684.01;;;1.28;73.82
47811;BME280;33575;52.600;7.318;2023-04-06T00:41:42;101681.89;;;1.31;73.33
47811;BME280;33575;52.600;7.318;2023-04-06T00:44:10;101680.45;;;1.35;73.67
47811;BME280;33575;52.600;7.318;2023-04-06T00:46:40;101678.18;;;1.59;74.38
47811;BME280;33575;52.600;7.318;2023-04-06T00:49:11;101675.86;;;1.65;73.45
47811;BME280;33575;52.600;7.318;2023-04-06T00:51:41;101677.75;;;1.54;73.34
47811;BME280;33575;52.600;7.318;2023-04-06T00:54:11;101673.65;;;1.39;73.15
47811;BME280;33575;52.600;7.318;2023-04-06T00:56:42;101667.79;;;1.17;73.56
47811;BME280;33575;52.600;7.318;2023-04-06T00:59:13;101663.89;;;1.02;73.85
47811;BME280;33575;52.600;7.318;2023-04-06T01:01:43;101663.24;;;0.86;74.57
47811;BME280;33575;52.600;7.318;2023-04-06T01:04:14;101662.76;;;0.73;74.55
47811;BME280;33575;52.600;7.318;2023-04-06T01:06:44;101656.80;;;0.58;75.31
47811;BME280;33575;52.600;7.318;2023-04-06T01:09:14;101651.31;;;0.47;75.29
47811;BME280;33575;52.600;7.318;2023-04-06T01:11:45;101651.97;;;0.36;75.90
47811;BME280;33575;52.600;7.318;2023-04-06T01:14:15;101652.66;;;0.35;76.07
47811;BME280;33575;52.600;7.318;2023-04-06T01:16:45;101649.45;;;0.36;76.36
47811;BME280;33575;52.600;7.318;2023-04-06T01:19:15;101644.49;;;0.40;76.50
47811;BME280;33575;52.600;7.318;2023-04-06T01:21:46;101641.67;;;0.46;76.51
47811;BME280;33575;52.600;7.318;2023-04-06T01:24:16;101641.75;;;0.50;77.00
47811;BME280;33575;52.600;7.318;2023-04-06T01:26:46;101642.95;;;0.56;76.01
47811;BME280;33575;52.600;7.318;2023-04-06T01:29:16;101641.99;;;0.59;76.53
47811;BME280;33575;52.600;7.318;2023-04-06T01:31:47;101642.95;;;0.63;76.32
47811;BME280;33575;52.600;7.318;2023-04-06T01:34:17;101639.12;;;0.64;76.38
47811;BME280;33575;52.600;7.318;2023-04-06T01:36:47;101638.97;;;0.67;75.87
47811;BME280;33575;52.600;7.318;2023-04-06T01:39:19;101636.21;;;0.69;75.81
47811;BME280;33575;52.600;7.318;2023-04-06T01:41:48;101634.89;;;0.71;75.30
47811;BME280;33575;52.600;7.318;2023-04-06T01:44:19;101632.21;;;0.70;75.52
47811;BME280;33575;52.600;7.318;2023-04-06T01:46:49;101629.07;;;0.69;75.14
47811;BME280;33575;52.600;7.318;2023-04-06T01:49:20;101628.39;;;0.67;75.47
47811;BME280;33575;52.600;7.318;2023-04-06T01:51:50;101627.36;;;0.68;75.48
47811;BME280;33575;52.600;7.318;2023-04-06T01:54:21;101621.42;;;0.66;75.47
47811;BME280;33575;52.600;7.318;2023-04-06T01:56:51;101622.70;;;0.61;75.20
47811;BME280;33575;52.600;7.318;2023-04-06T01:59:22;101621.06;;;0.58;75.87
47811;BME280;33575;52.600;7.318;2023-04-06T02:01:52;101621.83;;;0.58;75.63
47811;BME280;33575;52.600;7.318;2023-04-06T02:04:22;101618.95;;;0.58;75.53
47811;BME280;33575;52.600;7.318;2023-04-06T02:06:53;101619.71;;;0.59;75.60
47811;BME280;33575;52.600;7.318;2023-04-06T02:09:23;101621.30;;;0.57;75.51
47811;BME280;33575;52.600;7.318;2023-04-06T02:11:54;101620.15;;;0.59;74.81
47811;BME280;33575;52.600;7.318;2023-04-06T02:14:25;101618.87;;;0.48;74.87
47811;BME280;33575;52.600;7.318;2023-04-06T02:16:55;101616.01;;;0.40;75.07
47811;BME280;33575;52.600;7.318;2023-04-06T02:19:25;101615.65;;;0.31;75.15
47811;BME280;33575;52.600;7.318;2023-04-06T02:21:55;101616.95;;;0.24;75.10
47811;BME280;33575;52.600;7.318;2023-04-06T02:24:26;101614.05;;;0.17;75.18
47811;BME280;33575;52.600;7.318;2023-04-06T02:26:57;101611.84;;;0.10;75.65
47811;BME280;33575;52.600;7.318;2023-04-06T02:29:27;101610.33;;;0.09;76.41
47811;BME280;33575;52.600;7.318;2023-04-06T02:31:57;101610.47;;;0.09;76.34
47811;BME280;33575;52.600;7.318;2023-04-06T02:34:27;101605.37;;;0.09;76.79
47811;BME280;33575;52.600;7.318;2023-04-06T02:36:57;101603.47;;;0.11;76.77
47811;BME280;33575;52.600;7.318;2023-04-06T02:39:28;101602.97;;;0.10;77.49
47811;BME280;33575;52.600;7.318;2023-04-06T02:41:58;101601.36;;;0.09;76.68
47811;BME280;33575;52.600;7.318;2023-04-06T02:44:29;101599.95;;;0.10;76.81
47811;BME280;33575;52.600;7.318;2023-04-06T02:46:59;101596.18;;;0.12;77.16
47811;BME280;33575;52.600;7.318;2023-04-06T02:49:30;101597.60;;;0.14;76.40
47811;BME280;33575;52.600;7.318;2023-04-06T02:52:01;101595.44;;;0.16;76.14
47811;BME280;33575;52.600;7.318;2023-04-06T02:54:31;101596.22;;;0.18;75.54
47811;BME280;33575;52.600;7.318;2023-04-06T02:57:01;101592.58;;;0.14;75.42
47811;BME280;33575;52.600;7.318;2023-04-06T02:59:32;101591.66;;;0.08;75.27
47811;BME280;33575;52.600;7.318;2023-04-06T03:02:02;101590.15;;;0.01;75.62
47811;BME280;33575;52.600;7.318;2023-04-06T03:04:32;101586.72;;;-0.02;75.32
47811;BME280;33575;52.600;7.318;2023-04-06T03:07:03;101588.89;;;-0.08;75.65
47811;BME280;33575;52.600;7.318;2023-04-06T03:09:34;101591.48;;;-0.10;75.82
47811;BME280;33575;52.600;7.318;2023-04-06T03:12:04;101588.06;;;-0.11;75.58
47811;BME280;33575;52.600;7.318;2023-04-06T03:14:34;101587.80;;;-0.17;75.83
47811;BME280;33575;52.600;7.318;2023-04-06T03:17:04;101586.95;;;-0.16;75.94
47811;BME280;33575;52.600;7.318;2023-04-06T03:19:35;101582.27;;;-0.15;76.35
47811;BME280;33575;52.600;7.318;2023-04-06T03:22:06;101585.33;;;-0.13;76.21
47811;BME280;33575;52.600;7.318;2023-04-06T03:24:36;101585.05;;;-0.11;76.56
47811;BME280;33575;52.600;7.318;2023-04-06T03:27:07;101583.17;;;-0.10;77.16
47811;BME280;33575;52.600;7.318;2023-04-06T03:29:37;101580.95;;;-0.07;77.05
47811;BME280;33575;52.600;7.318;2023-04-06T03:32:10;101577.32;;;-0.06;76.82
47811;BME280;33575;52.600;7.318;2023-04-06T03:34:38;101578.88;;;-0.06;76.66
47811;BME280;33575;52.600;7.318;2023-04-06T03:37:11;101577.32;;;-0.11;76.98
47811;BME280;33575;52.600;7.318;2023-04-06T03:39:39;101577.46;;;-0.15;76.96
47811;BME280;33575;52.600;7.318;2023-04-06T03:42:09;101574.66;;;-0.16;77.00
47811;BME280;33575;52.600;7.318;2023-04-06T03:44:39;101573.37;;;-0.16;77.51
47811;BME280;33575;52.600;7.318;2023-04-06T03:47:10;101573.49;;;-0.17;77.29
47811;BME280;33575;52.600;7.318;2023-04-06T03:49:41;101572.70;;;-0.13;76.31
47811;BME280;33575;52.600;7.318;2023-04-06T03:52:10;101574.15;;;-0.18;76.74
47811;BME280;33575;52.600;7.318;2023-04-06T03:54:41;101573.65;;;-0.19;76.78
47811;BME280;33575;52.600;7.318;2023-04-06T03:57:11;101574.59;;;-0.19;76.66
47811;BME280;33575;52.600;7.318;2023-04-06T03:59:42;101575.14;;;-0.20;76.75
47811;BME280;33575;52.600;7.318;2023-04-06T04:02:12;101575.49;;;-0.19;76.62
47811;BME280;33575;52.600;7.318;2023-04-06T04:04:42;101577.38;;;-0.20;77.29
47811;BME280;33575;52.600;7.318;2023-04-06T04:07:12;101576.20;;;-0.19;76.67
47811;BME280;33575;52.600;7.318;2023-04-06T04:09:43;101576.96;;;-0.19;76.70
47811;BME280;33575;52.600;7.318;2023-04-06T04:12:13;101576.15;;;-0.17;76.56
47811;BME280;33575;52.600;7.318;2023-04-06T04:14:44;101576.64;;;-0.18;76.61
47811;BME280;33575;52.600;7.318;2023-04-06T04:17:14;101577.81;;;-0.21;76.28
47811;BME280;33575;52.600;7.318;2023-04-06T04:19:45;101576.71;;;-0.33;76.99
47811;BME280;33575;52.600;7.318;2023-04-06T04:22:15;101576.44;;;-0.41;76.74
47811;BME280;33575;52.600;7.318;2023-04-06T04:24:45;101581.46;;;-0.43;77.39
47811;BME280;33575;52.600;7.318;2023-04-06T04:27:16;101579.33;;;-0.43;77.34
47811;BME280;33575;52.600;7.318;2023-04-06T04:29:46;101575.35;;;-0.42;77.30
47811;BME280;33575;52.600;7.318;2023-04-06T04:32:17;101575.88;;;-0.43;77.61
47811;BME280;33575;52.600;7.318;2023-04-06T04:34:47;101574.08;;;-0.42;77.84
47811;BME280;33575;52.600;7.318;2023-04-06T04:37:18;101576.58;;;-0.41;77.70
47811;BME280;33575;52.600;7.318;2023-04-06T04:39:48;101575.83;;;-0.39;77.35
47811;BME280;33575;52.600;7.318;2023-04-06T04:42:18;101577.02;;;-0.37;77.13
47811;BME280;33575;52.600;7.318;2023-04-06T04:44:49;101574.95;;;-0.36;76.66
47811;BME280;33575;52.600;7.318;2023-04-06T04:47:19;101573.90;;;-0.39;76.50
47811;BME280;33575;52.600;7.318;2023-04-06T04:49:49;101571.25;;;-0.43;76.55
47811;BME280;33575;52.600;7.318;2023-04-06T04:52:20;101573.11;;;-0.41;76.53
47811;BME280;33575;52.600;7.318;2023-04-06T04:54:50;101569.84;;;-0.42;76.70
47811;BME280;33575;52.600;7.318;2023-04-06T04:57:20;101568.98;;;-0.43;76.95
47811;BME280;33575;52.600;7.318;2023-04-06T04:59:50;101571.35;;;-0.43;77.30
47811;BME280;33575;52.600;7.318;2023-04-06T05:02:21;101572.45;;;-0.42;77.29
47811;BME280;33575;52.600;7.318;2023-04-06T05:04:51;101572.71;;;-0.39;76.61
47811;BME280;33575;52.600;7.318;2023-04-06T05:07:22;101569.59;;;-0.41;76.19
47811;BME280;33575;52.600;7.318;2023-04-06T05:09:52;101571.46;;;-0.45;76.80
47811;BME280;33575;52.600;7.318;2023-04-06T05:12:23;101571.60;;;-0.44;77.08
47811;BME280;33575;52.600;7.318;2023-04-06T05:14:53;101572.28;;;-0.42;76.99
47811;BME280;33575;52.600;7.318;2023-04-06T05:17:24;101570.18;;;-0.41;77.64
47811;BME280;33575;52.600;7.318;2023-04-06T05:19:55;101572.67;;;-0.39;77.40
47811;BME280;33575;52.600;7.318;2023-04-06T05:22:25;101565.37;;;-0.40;77.25
47811;BME280;33575;52.600;7.318;2023-04-06T05:24:55;101562.54;;;-0.38;77.76
47811;BME280;33575;52.600;7.318;2023-04-06T05:27:25;101559.09;;;-0.36;77.49
47811;BME280;33575;52.600;7.318;2023-04-06T05:29:58;101563.30;;;-0.32;77.40
47811;BME280;33575;52.600;7.318;2023-04-06T05:32:27;101565.63;;;-0.30;77.42
47811;BME280;33575;52.600;7.318;2023-04-06T05:34:56;101565.67;;;-0.27;77.35
47811;BME280;33575;52.600;7.318;2023-04-06T05:37:27;101564.39;;;-0.26;77.26
47811;BME280;33575;52.600;7.318;2023-04-06T05:39:58;101560.43;;;-0.25;77.60
47811;BME280;33575;52.600;7.318;2023-04-06T05:42:28;101563.28;;;-0.21;77.46
47811;BME280;33575;52.600;7.318;2023-04-06T05:44:58;101561.59;;;-0.19;77.60
47811;BME280;33575;52.600;7.318;2023-04-06T05:47:29;101560.39;;;-0.15;77.63
47811;BME280;33575;52.600;7.318;2023-04-06T05:49:59;101562.80;;;-0.14;77.86
47811;BME280;33575;52.600;7.318;2023-04-06T05:52:29;101565.15;;;-0.11;77.56
47811;BME280;33575;52.600;7.318;2023-04-06T05:54:59;101561.86;;;-0.08;77.43
47811;BME280;33575;52.600;7.318;2023-04-06T05:57:30;101558.18;;;-0.06;77.68
47811;BME280;33575;52.600;7.318;2023-04-06T06:00:00;101559.31;;;-0.04;77.54
47811;BME280;33575;52.600;7.318;2023-04-06T06:02:30;101554.21;;;-0.02;77.55
47811;BME280;33575;52.600;7.318;2023-04-06T06:05:01;101555.12;;;-0.01;77.93
47811;BME280;33575;52.600;7.318;2023-04-06T06:07:31;101554.46;;;-0.00;78.30
47811;BME280;33575;52.600;7.318;2023-04-06T06:10:01;101555.07;;;0.05;78.19
47811;BME280;33575;52.600;7.318;2023-04-06T06:12:32;101556.73;;;0.12;78.16
47811;BME280;33575;52.600;7.318;2023-04-06T06:15:04;101554.96;;;0.21;78.10
47811;BME280;33575;52.600;7.318;2023-04-06T06:17:33;101553.60;;;0.28;77.93
47811;BME280;33575;52.600;7.318;2023-04-06T06:20:05;101552.67;;;0.32;78.58
47811;BME280;33575;52.600;7.318;2023-04-06T06:22:34;101554.56;;;0.39;77.97
47811;BME280;33575;52.600;7.318;2023-04-06T06:25:04;101553.09;;;0.45;77.74
47811;BME280;33575;52.600;7.318;2023-04-06T06:27:35;101552.53;;;0.49;78.23
47811;BME280;33575;52.600;7.318;2023-04-06T06:30:06;101551.55;;;0.56;78.14
47811;BME280;33575;52.600;7.318;2023-04-06T06:32:36;101556.54;;;0.62;78.25
47811;BME280;33575;52.600;7.318;2023-04-06T06:35:07;101556.13;;;0.67;78.91
47811;BME280;33575;52.600;7.318;2023-04-06T06:37:36;101556.89;;;0.74;78.82
47811;BME280;33575;52.600;7.318;2023-04-06T06:40:08;101555.38;;;0.79;79.09
47811;BME280;33575;52.600;7.318;2023-04-06T06:42:36;101554.54;;;0.88;78.86
47811;BME280;33575;52.600;7.318;2023-04-06T06:45:08;101554.18;;;0.97;79.02
47811;BME280;33575;52.600;7.318;2023-04-06T06:47:37;101548.98;;;1.10;78.70
47811;BME280;33575;52.600;7.318;2023-04-06T06:50:08;101551.52;;;1.28;83.07
47811;BME280;33575;52.600;7.318;2023-04-06T06:52:39;101549.79;;;1.45;83.60
47811;BME280;33575;52.600;7.318;2023-04-06T06:55:10;101546.26;;;1.46;81.86
47811;BME280;33575;52.600;7.318;2023-04-06T06:57:39;101543.90;;;1.40;81.89
47811;BME280;33575;52.600;7.318;2023-04-06T07:00:14;101544.06;;;1.35;82.90
47811;BME280;33575;52.600;7.318;2023-04-06T07:02:41;101545.22;;;1.39;82.98
47811;BME280;33575;52.600;7.318;2023-04-06T07:05:16;101543.63;;;1.43;82.94
47811;BME280;33575;52.600;7.318;2023-04-06T07:07:41;101537.89;;;1.54;83.23
47811;BME280;33575;52.600;7.318;2023-04-06T07:10:11;101538.10;;;1.63;83.43
47811;BME280;33575;52.600;7.318;2023-04-06T07:12:41;101538.65;;;1.72;83.22
47811;BME280;33575;52.600;7.318;2023-04-06T07:15:11;101540.60;;;1.83;84.10
47811;BME280;33575;52.600;7.318;2023-04-06T07:17:42;101537.81;;;1.95;83.58
47811;BME280;33575;52.600;7.318;2023-04-06T07:20:13;101536.80;;;2.07;83.41
47811;BME280;33575;52.600;7.318;2023-04-06T07:22:44;101536.15;;;2.15;83.74
47811;BME280;33575;52.600;7.318;2023-04-06T07:25:14;101532.67;;;2.27;83.32
47811;BME280;33575;52.600;7.318;2023-04-06T07:27:44;101533.17;;;2.40;83.46
47811;BME280;33575;52.600;7.318;2023-04-06T07:30:15;101531.11;;;2.50;83.70
47811;BME280;33575;52.600;7.318;2023-04-06T07:32:45;101527.52;;;2.60;83.45
47811;BME280;33575;52.600;7.318;2023-04-06T07:35:15;101524.49;;;2.78;82.90
47811;BME280;33575;52.600;7.318;2023-04-06T07:37:46;101522.74;;;2.92;82.43
47811;BME280;33575;52.600;7.318;2023-04-06T07:40:16;101519.32;;;3.09;82.42
47811;BME280;33575;52.600;7.318;2023-04-06T07:42:47;101518.98;;;3.20;81.07
47811;BME280;33575;52.600;7.318;2023-04-06T07:45:18;101519.00;;;3.34;81.73
47811;BME280;33575;52.600;7.318;2023-04-06T07:47:48;101517.64;;;3.47;81.34
47811;BME280;33575;52.600;7.318;2023-04-06T07:50:18;101518.72;;;3.58;80.42
47811;BME280;33575;52.600;7.318;2023-04-06T07:52:48;101518.32;;;3.74;79.98
47811;BME280;33575;52.600;7.318;2023-04-06T07:55:18;101519.99;;;3.78;79.78
47811;BME280;33575;52.600;7.318;2023-04-06T07:57:48;101516.65;;;3.86;79.04
47811;BME280;33575;52.600;7.318;2023-04-06T08:00:19;101515.38;;;4.01;79.28
47811;BME280;33575;52.600;7.318;2023-04-06T08:02:49;101517.59;;;4.15;79.72
47811;BME280;33575;52.600;7.318;2023-04-06T08:05:19;101517.45;;;4.26;79.47
47811;BME280;33575;52.600;7.318;2023-04-06T08:07:50;101518.43;;;4.36;78.27
47811;BME280;33575;52.600;7.318;2023-04-06T08:10:21;101516.87;;;4.47;78.17
47811;BME280;33575;52.600;7.318;2023-04-06T08:12:52;101517.76;;;4.61;78.25
47811;BME280;33575;52.600;7.318;2023-04-06T08:15:22;101515.81;;;4.72;78.00
47811;BME280;33575;52.600;7.318;2023-04-06T08:17:52;101518.92;;;4.85;78.47
47811;BME280;33575;52.600;7.318;2023-04-06T08:20:22;101523.66;;;5.04;78.56
47811;BME280;33575;52.600;7.318;2023-04-06T08:22:54;101518.03;;;5.26;77.48
47811;BME280;33575;52.600;7.318;2023-04-06T08:25:23;101519.99;;;5.44;77.02
47811;BME280;33575;52.600;7.318;2023-04-06T08:27:53;101520.69;;;5.44;77.03
47811;BME280;33575;52.600;7.318;2023-04-06T08:30:23;101522.23;;;5.50;76.17
47811;BME280;33575;52.600;7.318;2023-04-06T08:32:54;101522.11;;;5.65;76.72
47811;BME280;33575;52.600;7.318;2023-04-06T08:35:24;101522.12;;;5.71;76.64
47811;BME280;33575;52.600;7.318;2023-04-06T08:37:54;101518.69;;;5.82;76.53
47811;BME280;33575;52.600;7.318;2023-04-06T08:40:24;101521.53;;;5.96;76.33
47811;BME280;33575;52.600;7.318;2023-04-06T08:42:56;101518.17;;;6.10;76.15
47811;BME280;33575;52.600;7.318;2023-04-06T08:45:25;101516.37;;;6.21;74.89
47811;BME280;33575;52.600;7.318;2023-04-06T08:47:57;101512.77;;;6.44;76.47
47811;BME280;33575;52.600;7.318;2023-04-06T08:50:26;101509.68;;;6.63;74.50
47811;BME280;33575;52.600;7.318;2023-04-06T08:52:56;101509.28;;;6.73;74.23
47811;BME280;33575;52.600;7.318;2023-04-06T08:55:27;101511.63;;;6.83;75.00
47811;BME280;33575;52.600;7.318;2023-04-06T08:57:59;101511.89;;;6.95;74.90
47811;BME280;33575;52.600;7.318;2023-04-06T09:00:28;101512.72;;;7.09;74.21
47811;BME280;33575;52.600;7.318;2023-04-06T09:02:58;101513.87;;;7.16;73.79
47811;BME280;33575;52.600;7.318;2023-04-06T09:05:28;101517.01;;;7.30;74.27
47811;BME280;33575;52.600;7.318;2023-04-06T09:07:59;101515.35;;;7.46;74.67
47811;BME280;33575;52.600;7.318;2023-04-06T09:10:29;101514.88;;;7.62;73.60
47811;BME280;33575;52.600;7.318;2023-04-06T09:13:05;101512.68;;;7.75;73.32
47811;BME280;33575;52.600;7.318;2023-04-06T09:15:30;101507.69;;;7.87;73.35
47811;BME280;33575;52.600;7.318;2023-04-06T09:18:01;101501.72;;;8.04;72.70
47811;BME280;33575;52.600;7.318;2023-04-06T09:20:31;101500.07;;;8.20;72.06
47811;BME280;33575;52.600;7.318;2023-04-06T09:23:02;101499.80;;;8.34;70.84
47811;BME280;33575;52.600;7.318;2023-04-06T09:25:32;101498.48;;;8.42;70.38
47811;BME280;33575;52.600;7.318;2023-04-06T09:28:04;101491.69;;;8.58;69.83
47811;BME280;33575;52.600;7.318;2023-04-06T09:30:34;101492.60;;;8.75;70.53
47811;BME280;33575;52.600;7.318;2023-04-06T09:33:04;101491.53;;;8.94;70.20
47811;BME280;33575;52.600;7.318;2023-04-06T09:35:34;101486.89;;;9.15;69.30
47811;BME280;33575;52.600;7.318;2023-04-06T09:38:10;101479.81;;;9.25;68.04
47811;BME280;33575;52.600;7.318;2023-04-06T09:40:35;101475.80;;;9.30;66.66
47811;BME280;33575;52.600;7.318;2023-04-06T09:43:06;101471.66;;;9.42;68.33
47811;BME280;33575;52.600;7.318;2023-04-06T09:45:36;101473.04;;;9.45;67.19
47811;BME280;33575;52.600;7.318;2023-04-06T09:48:06;101469.84;;;9.59;67.55
47811;BME280;33575;52.600;7.318;2023-04-06T09:50:37;101466.20;;;9.77;67.19
47811;BME280;33575;52.600;7.318;2023-04-06T09:53:08;101466.83;;;9.93;66.50
47811;BME280;33575;52.600;7.318;2023-04-06T09:55:42;101468.96;;;10.15;65.79
47811;BME280;33575;52.600;7.318;2023-04-06T09:58:10;101467.59;;;10.36;65.72
47811;BME280;33575;52.600;7.318;2023-04-06T10:00:43;101462.20;;;10.50;64.15
47811;BME280;33575;52.600;7.318;2023-04-06T10:03:18;101462.95;;;10.60;62.52
47811;BME280;33575;52.600;7.318;2023-04-06T10:05:46;101458.84;;;10.73;62.81
47811;BME280;33575;52.600;7.318;2023-04-06T10:08:10;101456.17;;;10.81;62.99
47811;BME280;33575;52.600;7.318;2023-04-06T10:10:39;101451.55;;;10.96;62.44
47811;BME280;33575;52.600;7.318;2023-04-06T10:13:11;101451.84;;;11.12;63.51
47811;BME280;33575;52.600;7.318;2023-04-06T10:15:42;101444.63;;;11.46;62.17
47811;BME280;33575;52.600;7.318;2023-04-06T10:18:12;101446.19;;;11.61;62.83
47811;BME280;33575;52.600;7.318;2023-04-06T10:20:48;101446.92;;;11.71;59.69
47811;BME280;33575;52.600;7.318;2023-04-06T10:23:18;101442.72;;;11.81;60.62
47811;BME280;33575;52.600;7.318;2023-04-06T10:25:52;101443.08;;;11.89;58.67
47811;BME280;33575;52.600;7.318;2023-04-06T10:28:14;101439.26;;;11.90;57.85
47811;BME280;33575;52.600;7.318;2023-04-06T10:30:45;101441.46;;;11.93;57.77
47811;BME280;33575;52.600;7.318;2023-04-06T10:33:16;101439.36;;;11.83;55.98
47811;BME280;33575;52.600;7.318;2023-04-06T10:35:46;101442.13;;;11.72;57.54
47811;BME280;33575;52.600;7.318;2023-04-06T10:38:16;101439.92;;;11.77;56.64
47811;BME280;33575;52.600;7.318;2023-04-06T10:40:46;101441.91;;;11.78;57.07
47811;BME280;33575;52.600;7.318;2023-04-06T10:43:19;101433.89;;;11.86;57.40
47811;BME280;33575;52.600;7.318;2023-04-06T10:45:54;101441.51;;;11.75;56.20
47811;BME280;33575;52.600;7.318;2023-04-06T10:48:18;101439.13;;;11.79;57.37
47811;BME280;33575;52.600;7.318;2023-04-06T10:50:50;101438.10;;;11.72;56.51
47811;BME280;33575;52.600;7.318;2023-04-06T10:53:23;101432.87;;;11.69;57.82
47811;BME280;33575;52.600;7.318;2023-04-06T10:55:50;101435.86;;;11.58;57.79
47811;BME280;33575;52.600;7.318;2023-04-06T10:58:20;101433.64;;;11.52;54.04
47811;BME280;33575;52.600;7.318;2023-04-06T11:00:53;101435.75;;;11.43;55.06
47811;BME280;33575;52.600;7.318;2023-04-06T11:03:20;101428.46;;;11.29;54.45
47811;BME280;33575;52.600;7.318;2023-04-06T11:05:51;101429.42;;;11.40;58.12
47811;BME280;33575;52.600;7.318;2023-04-06T11:08:24;101424.97;;;11.66;58.14
47811;BME280;33575;52.600;7.318;2023-04-06T11:11:03;101420.35;;;11.79;57.61
47811;BME280;33575;52.600;7.318;2023-04-06T11:13:22;101423.46;;;11.87;54.91
47811;BME280;33575;52.600;7.318;2023-04-06T11:15:52;101420.90;;;11.95;55.56
47811;BME280;33575;52.600;7.318;2023-04-06T11:18:23;101418.60;;;12.09;56.75
47811;BME280;33575;52.600;7.318;2023-04-06T11:20:53;101424.03;;;12.13;54.53
47811;BME280;33575;52.600;7.318;2023-04-06T11:23:25;101422.86;;;12.21;53.88
47811;BME280;33575;52.600;7.318;2023-04-06T11:25:55;101421.69;;;12.24;52.47
47811;BME280;33575;52.600;7.318;2023-04-06T11:28:25;101420.12;;;12.40;52.73
47811;BME280;33575;52.600;7.318;2023-04-06T11:30:56;101420.49;;;12.47;54.46
47811;BME280;33575;52.600;7.318;2023-04-06T11:33:26;101414.58;;;12.55;53.12
47811;BME280;33575;52.600;7.318;2023-04-06T11:35:57;101416.68;;;12.47;53.17
47811;BME280;33575;52.600;7.318;2023-04-06T11:38:27;101418.51;;;12.45;52.31
47811;BME280;33575;52.600;7.318;2023-04-06T11:40:57;101415.18;;;12.50;54.10
47811;BME280;33575;52.600;7.318;2023-04-06T11:43:28;101413.45;;;12.43;54.65
47811;BME280;33575;52.600;7.318;2023-04-06T11:46:01;101407.18;;;12.43;55.70
47811;BME280;33575;52.600;7.318;2023-04-06T11:48:29;101407.36;;;12.31;52.60
47811;BME280;33575;52.600;7.318;2023-04-06T11:50:59;101400.07;;;12.39;55.77
47811;BME280;33575;52.600;7.318;2023-04-06T11:53:29;101399.79;;;12.41;54.32
47811;BME280;33575;52.600;7.318;2023-04-06T11:56:00;101397.26;;;12.44;54.18
47811;BME280;33575;52.600;7.318;2023-04-06T11:58:30;101396.97;;;12.44;56.22
47811;BME280;33575;52.600;7.318;2023-04-06T12:01:04;101394.29;;;12.43;53.97
47811;BME280;33575;52.600;7.318;2023-04-06T12:03:31;101390.51;;;12.52;54.53
47811;BME280;33575;52.600;7.318;2023-04-06T12:06:02;101385.15;;;12.41;54.59
47811;BME280;33575;52.600;7.318;2023-04-06T12:08:32;101387.91;;;12.32;55.77
47811;BME280;33575;52.600;7.318;2023-04-06T12:11:03;101382.57;;;12.33;56.88
47811;BME280;33575;52.600;7.318;2023-04-06T12:13:33;101386.15;;;12.18;55.63
47811;BME280;33575;52.600;7.318;2023-04-06T12:16:04;101384.35;;;12.06;55.48
47811;BME280;33575;52.600;7.318;2023-04-06T12:18:34;101382.53;;;12.02;56.74
47811;BME280;33575;52.600;7.318;2023-04-06T12:21:05;101379.63;;;11.97;55.45
47811;BME280;33575;52.600;7.318;2023-04-06T12:23:35;101379.93;;;12.05;56.47
47811;BME280;33575;52.600;7.318;2023-04-06T12:26:05;101375.79;;;12.15;55.98
47811;BME280;33575;52.600;7.318;2023-04-06T12:28:36;101375.55;;;12.26;56.36
47811;BME280;33575;52.600;7.318;2023-04-06T12:31:06;101372.75;;;12.34;57.14
47811;BME280;33575;52.600;7.318;2023-04-06T12:33:37;101372.97;;;12.41;56.96
47811;BME280;33575;52.600;7.318;2023-04-06T12:36:11;101373.03;;;12.32;56.29
47811;BME280;33575;52.600;7.318;2023-04-06T12:38:38;101372.98;;;12.29;56.07
47811;BME280;33575;52.600;7.318;2023-04-06T12:41:08;101374.31;;;12.31;56.44
47811;BME280;33575;52.600;7.318;2023-04-06T12:43:40;101369.29;;;12.50;56.73
47811;BME280;33575;52.600;7.318;2023-04-06T12:46:10;101367.31;;;12.65;56.20
47811;BME280;33575;52.600;7.318;2023-04-06T12:48:39;101367.74;;;12.69;56.54
47811;BME280;33575;52.600;7.318;2023-04-06T12:51:10;101364.39;;;12.69;54.73
47811;BME280;33575;52.600;7.318;2023-04-06T12:53:41;101366.03;;;12.61;55.10
47811;BME280;33575;52.600;7.318;2023-04-06T12:56:14;101360.38;;;12.65;55.37
47811;BME280;33575;52.600;7.318;2023-04-06T12:58:42;101361.74;;;12.49;54.68
47811;BME280;33575;52.600;7.318;2023-04-06T13:01:13;101362.74;;;12.47;54.35
47811;BME280;33575;52.600;7.318;2023-04-06T13:03:43;101363.10;;;12.45;54.11
47811;BME280;33575;52.600;7.318;2023-04-06T13:06:13;101360.77;;;12.37;52.85
47811;BME280;33575;52.600;7.318;2023-04-06T13:08:43;101358.41;;;12.44;54.72
47811;BME280;33575;52.600;7.318;2023-04-06T13:11:13;101358.65;;;12.18;54.79